Polkville, Mississippi
Current Conditions -  °F | °C
As of 1:54 PM on Sunday 25 Jan 2015 (Local Time) from KJAN Reporting Station
Scattered Clouds Scattered Clouds  
Wind Chill: 67°   Ceiling: Unl
Heat Index: 67°   Visibility: 10mi
Dew Point: 37°   Wind: 18mph
Humidity: 33%   Direction: 220°SW
Pressure: 29.75"   Gusts: 25mph
Location:  32.4637°N, 89.5548°W
Report Text: KJAN 251954Z 22016G22KT 10SM FEW100 SCT250 19/03 A2975 RMK AO2 PK WND 21029/1906 SLP072 T01940028
Loading
Personal Weather Stations






























Interactive Weather Map New forecast layout! Learn more

10-Day Weather Forecast

Advertisements
Track Severe Weather on mobile